As Olivia — DYQC — position and weather

sailwx.info

Track history (hours):
 
Tides and Currents Weather Stations Pressure Air Temp Water Temp Dewpoint Dewpoint Depression Visibility Wind Speed Wind Dir Waves Ship Positions

As Olivia

Last reported at 2017-Jul-23 11:16 UTC. Time now 2017-Jul-24 20:47 UTC.
Position S 06°47' E 112°45'.

Length 146 m; draft 9.1 m.

Type: Ship. MMSI: 548767000.

Date/timePositionNaut miles runAvg speedWind from/ knotsBaromVisibWave heightAir tempDewpointWater temp
2017-Jul-23 11:16S 06°47' E 112°45'312.8
2017-Jul-23 11:00S 06°51' E 112°45'4 8.9
2017-Jul-23 10:30S 06°55' E 112°44'510.4
2017-Jul-23 10:00S 06°60' E 112°41'510.3
2017-Jul-23 09:29S 07°05' E 112°39'5 9.9
2017-Jul-23 09:00S 07°09' E 112°40'1 0.8
2017-Jul-23 07:34S 07°10' E 112°40'0 0.0
2017-Jul-23 07:28S 07°10' E 112°40'0 0.0
2017-Jul-23 04:31S 07°10' E 112°40'0 0.0
2017-Jul-23 04:10S 07°10' E 112°40'0 0.0
2017-Jul-22 23:58S 07°10' E 112°40'0 0.0
2017-Jul-22 23:19S 07°10' E 112°40'0 0.0
2017-Jul-22 22:49S 07°10' E 112°40'0 0.0
2017-Jul-22 22:25S 07°10' E 112°40'0 0.0
2017-Jul-22 20:25S 07°10' E 112°40'0 0.0
2017-Jul-22 19:43S 07°10' E 112°40'0 0.0
2017-Jul-22 19:22S 07°10' E 112°40'0 0.0
2017-Jul-22 18:55S 07°10' E 112°40'0 0.0
2017-Jul-22 15:31S 07°10' E 112°40'0 0.0
2017-Jul-22 15:22S 07°10' E 112°40'0 0.0
2017-Jul-22 12:25S 07°10' E 112°40'0 0.0
2017-Jul-22 10:04S 07°10' E 112°40'0 0.0
2017-Jul-22 01:43S 07°10' E 112°40'0 0.0
2017-Jul-22 01:19S 07°10' E 112°40'0 0.0
2017-Jul-22 00:55S 07°10' E 112°40'0 0.0
2017-Jul-21 23:16S 07°10' E 112°40'0 0.0
2017-Jul-21 21:34S 07°10' E 112°40'0 0.0
2017-Jul-21 21:19S 07°10' E 112°40'0 0.0
2017-Jul-21 15:10S 07°10' E 112°40'0 0.0
2017-Jul-21 14:31S 07°10' E 112°40'0 0.0
2017-Jul-21 14:28S 07°10' E 112°40'0 0.0
2017-Jul-21 12:55S 07°10' E 112°40'0 0.0
2017-Jul-21 11:13S 07°10' E 112°40'0 0.0
2017-Jul-21 09:37S 07°10' E 112°40'0 0.0
2017-Jul-21 06:49S 07°10' E 112°40'0 0.0
2017-Jul-20 14:35S 07°10' E 112°40'2 2.6
2017-Jul-20 13:58S 07°09' E 112°40'511.2
2017-Jul-20 13:30S 07°04' E 112°40'612.3
2017-Jul-20 13:00S 06°58' E 112°42'612.3
2017-Jul-20 12:30S 06°53' E 112°45'5 8.3
2017-Jul-20 11:53S 06°48' E 112°47'3 6.8
2017-Jul-20 11:28S 06°45' E 112°48'814.2
2017-Jul-20 10:55S 06°39' E 112°53'  
2017-Jul-18 00:51N 01°13' E 103°56'515.6
2017-Jul-18 00:30N 01°11' E 103°51'815.1
2017-Jul-18 00:00N 01°07' E 103°45'713.8
2017-Jul-17 23:31N 01°04' E 103°39'712.9
2017-Jul-17 23:00N 01°09' E 103°34'611.7
2017-Jul-17 22:30N 01°11' E 103°39'2 3.3
2017-Jul-17 21:53N 01°12' E 103°41'0 0.0
2017-Jul-17 21:29N 01°12' E 103°41'0 0.1
2017-Jul-17 20:56N 01°12' E 103°41'0 0.0
2017-Jul-17 20:14N 01°12' E 103°41'0 0.0
2017-Jul-17 19:44N 01°12' E 103°41'0 0.0
2017-Jul-17 19:26N 01°12' E 103°41'0 0.0
2017-Jul-17 18:59N 01°12' E 103°41'0 0.0
2017-Jul-17 18:29N 01°12' E 103°41'0 0.0
2017-Jul-17 17:59N 01°12' E 103°41'0 0.0
2017-Jul-17 17:29N 01°12' E 103°41'0 0.0
2017-Jul-17 16:59N 01°12' E 103°41'0 0.0
2017-Jul-17 16:29N 01°12' E 103°41'0 0.0
2017-Jul-17 15:59N 01°12' E 103°41'0 0.0
2017-Jul-17 15:29N 01°12' E 103°41'0 0.0
2017-Jul-17 14:59N 01°12' E 103°41'0 0.0
2017-Jul-17 14:29N 01°12' E 103°41'0 0.0
2017-Jul-17 13:59N 01°12' E 103°41'0 0.0
2017-Jul-17 13:20N 01°12' E 103°41'0 0.0
2017-Jul-17 12:59N 01°12' E 103°41'0 0.0
2017-Jul-17 12:20N 01°12' E 103°41'0 0.0
2017-Jul-17 11:50N 01°12' E 103°41'0 0.0
2017-Jul-17 11:29N 01°12' E 103°41'0 0.0
2017-Jul-17 11:00N 01°12' E 103°41'0 0.0
2017-Jul-17 10:30N 01°12' E 103°41'0 0.0
2017-Jul-17 10:01N 01°12' E 103°41'1 1.1
2017-Jul-17 09:31N 01°13' E 103°41'2 4.8
2017-Jul-17 09:00N 01°14' E 103°40'3 5.1
2017-Jul-17 08:30N 01°17' E 103°40'1 1.8
2017-Jul-17 08:00N 01°18' E 103°41'0 0.4
2017-Jul-17 07:31N 01°18' E 103°40'0 0.0
2017-Jul-17 07:00N 01°18' E 103°40'0 0.0
2017-Jul-17 06:30N 01°18' E 103°40'0 0.0
2017-Jul-17 06:00N 01°18' E 103°40'0 0.0
2017-Jul-17 05:31N 01°18' E 103°40'0 0.0
2017-Jul-17 05:00N 01°18' E 103°40'0 0.0
2017-Jul-17 04:31N 01°18' E 103°40'0 0.0
2017-Jul-17 04:01N 01°18' E 103°40'0 0.0
2017-Jul-17 03:31N 01°18' E 103°40'0 0.0
2017-Jul-17 03:01N 01°18' E 103°40'0 0.0
2017-Jul-17 02:31N 01°18' E 103°40'0 0.0
2017-Jul-17 02:00N 01°18' E 103°40'0 0.0
2017-Jul-17 01:30N 01°18' E 103°40'0 0.0
2017-Jul-17 01:01N 01°18' E 103°40'0 0.0
2017-Jul-17 00:31N 01°18' E 103°40'0 0.0
2017-Jul-17 00:00N 01°18' E 103°40'0 0.0
2017-Jul-16 23:30N 01°18' E 103°40'0 0.0
2017-Jul-16 23:01N 01°18' E 103°40'0 0.0
2017-Jul-16 22:30N 01°18' E 103°40'0 0.0
2017-Jul-16 22:01N 01°18' E 103°40'0 0.0
2017-Jul-16 21:31N 01°18' E 103°40'0 0.0
2017-Jul-16 21:01N 01°18' E 103°40'0 0.0
2017-Jul-16 20:30N 01°18' E 103°40'0 0.0
2017-Jul-16 20:00N 01°18' E 103°40'0 0.0
2017-Jul-16 19:31N 01°18' E 103°40'0 0.0
2017-Jul-16 19:01N 01°18' E 103°40'0 0.0
2017-Jul-16 18:30N 01°18' E 103°40'0 0.0
2017-Jul-16 18:00N 01°18' E 103°40'0 0.0
2017-Jul-16 17:31N 01°18' E 103°40'0 0.0
2017-Jul-16 17:00N 01°18' E 103°40'0 0.0
2017-Jul-16 16:30N 01°18' E 103°40'0 0.0
2017-Jul-16 16:01N 01°18' E 103°40'0 0.0
2017-Jul-16 15:31N 01°18' E 103°40'0 0.0
2017-Jul-16 15:00N 01°18' E 103°40'0 0.0
2017-Jul-16 14:30N 01°18' E 103°40'0 0.0
2017-Jul-16 14:01N 01°18' E 103°40'0 0.0
2017-Jul-16 13:31N 01°18' E 103°40'0 0.0
2017-Jul-16 13:01N 01°18' E 103°40'0 0.0
2017-Jul-16 12:30N 01°18' E 103°40'0 0.0
2017-Jul-16 12:00N 01°18' E 103°40'0 0.0
2017-Jul-16 11:31N 01°18' E 103°40'0 0.0
2017-Jul-16 11:00N 01°18' E 103°40'0 0.0
2017-Jul-16 10:30N 01°18' E 103°40'0 0.0
2017-Jul-16 10:00N 01°18' E 103°40'0 0.0
2017-Jul-16 09:31N 01°18' E 103°40'0 0.0
2017-Jul-16 09:01N 01°18' E 103°40'0 0.0
2017-Jul-16 08:30N 01°18' E 103°40'0 0.0
2017-Jul-16 08:01N 01°18' E 103°40'0 0.0
2017-Jul-16 07:30N 01°18' E 103°40'0 0.0
2017-Jul-16 07:00N 01°18' E 103°40'0 0.0
2017-Jul-16 06:31N 01°18' E 103°40'0 0.0
2017-Jul-16 06:01N 01°18' E 103°40'0 0.0
2017-Jul-16 05:30N 01°18' E 103°40'0 0.0
2017-Jul-15 07:00N 01°18' E 103°40'0 0.0
2017-Jul-15 06:30N 01°18' E 103°40'0 0.0
2017-Jul-15 06:01N 01°18' E 103°40'0 0.0
2017-Jul-15 05:30N 01°18' E 103°40'0 0.0
2017-Jul-15 05:00N 01°18' E 103°40'0 0.0
2017-Jul-15 04:31N 01°18' E 103°40'0 0.0
2017-Jul-15 04:01N 01°18' E 103°40'0 0.0
2017-Jul-15 03:30N 01°18' E 103°40'0 0.0
2017-Jul-15 03:00N 01°18' E 103°40'0 0.0
2017-Jul-15 02:30N 01°18' E 103°40'0 0.0
2017-Jul-15 02:01N 01°18' E 103°40'0 0.1
2017-Jul-15 01:31N 01°18' E 103°40'0 0.0
2017-Jul-15 01:01N 01°18' E 103°40'0 0.0
2017-Jul-15 00:30N 01°18' E 103°40'0 0.0
2017-Jul-15 00:00N 01°18' E 103°40'0 0.0
2017-Jul-14 23:31N 01°18' E 103°40'0 0.0
2017-Jul-14 23:01N 01°18' E 103°40'0 0.0
2017-Jul-14 22:31N 01°18' E 103°40'0 0.0
2017-Jul-14 22:00N 01°18' E 103°40'0 0.0
2017-Jul-14 21:30N 01°18' E 103°40'0 0.0
2017-Jul-14 21:00N 01°18' E 103°40'0 0.0
2017-Jul-14 20:31N 01°18' E 103°40'0 0.0
2017-Jul-14 20:01N 01°18' E 103°40'0 0.0
2017-Jul-14 19:31N 01°18' E 103°40'0 0.0
2017-Jul-14 19:00N 01°18' E 103°40'0 0.0
2017-Jul-14 18:30N 01°18' E 103°40'0 0.0
2017-Jul-14 18:00N 01°18' E 103°40'0 0.1
2017-Jul-14 17:31N 01°18' E 103°40'0 0.1
2017-Jul-14 17:00N 01°18' E 103°40'0 0.0
2017-Jul-14 16:30N 01°18' E 103°40'0 0.0
2017-Jul-14 16:00N 01°18' E 103°40'0 0.0
2017-Jul-14 15:30N 01°18' E 103°40'0 0.0
2017-Jul-14 15:00N 01°18' E 103°40'0 0.0
2017-Jul-14 14:30N 01°18' E 103°40'0 0.0
2017-Jul-14 14:00N 01°18' E 103°40'0 0.0
2017-Jul-14 13:30N 01°18' E 103°40'0 0.0
2017-Jul-14 13:00N 01°18' E 103°40'0 0.0
2017-Jul-14 12:30N 01°18' E 103°40'0 0.0
2017-Jul-14 12:00N 01°18' E 103°40'0 0.0
2017-Jul-14 11:31N 01°18' E 103°40'0 0.0
2017-Jul-14 11:00N 01°18' E 103°40'0 0.0
2017-Jul-14 10:30N 01°18' E 103°40'0 0.0
2017-Jul-14 10:01N 01°18' E 103°40'0 0.0
2017-Jul-14 09:30N 01°18' E 103°40'0 0.0
2017-Jul-14 09:00N 01°18' E 103°40'0 0.0
2017-Jul-14 08:30N 01°18' E 103°40'0 0.0
2017-Jul-14 08:00N 01°18' E 103°40'0 0.0
2017-Jul-14 07:30N 01°18' E 103°40'0 0.0
2017-Jul-14 07:00N 01°18' E 103°40'0 0.0
2017-Jul-14 06:30N 01°18' E 103°40'0 0.0
2017-Jul-14 06:00N 01°18' E 103°40'0 0.0
2017-Jul-14 05:30N 01°18' E 103°40'0 0.0
2017-Jul-14 05:00N 01°18' E 103°40'0 0.0
2017-Jul-14 04:30N 01°18' E 103°40'0 0.0
2017-Jul-14 04:01N 01°18' E 103°40'0 0.0
2017-Jul-14 03:30N 01°18' E 103°40'0 0.0
2017-Jul-14 03:00N 01°18' E 103°40'0 0.0
2017-Jul-14 02:30N 01°18' E 103°40'0 0.0
2017-Jul-14 02:00N 01°18' E 103°40'0 0.1
2017-Jul-14 01:31N 01°18' E 103°40'0 0.0
2017-Jul-14 01:00N 01°18' E 103°40'0 0.1
2017-Jul-14 00:31N 01°18' E 103°40'0 0.1
2017-Jul-14 00:00N 01°18' E 103°40'0 0.0
2017-Jul-13 23:30N 01°18' E 103°40'0 0.0
2017-Jul-13 23:01N 01°18' E 103°40'0 0.0
2017-Jul-13 22:31N 01°18' E 103°40'0 0.0
2017-Jul-13 22:00N 01°18' E 103°40'0 0.0
2017-Jul-13 21:30N 01°18' E 103°40'0 0.0
2017-Jul-13 21:01N 01°18' E 103°40'0 0.0
2017-Jul-13 20:30N 01°18' E 103°40'0 0.1
2017-Jul-13 20:00N 01°18' E 103°40'0 0.0
2017-Jul-13 19:30N 01°18' E 103°40'0 0.0
2017-Jul-13 19:00N 01°18' E 103°40'0 0.0
2017-Jul-13 18:31N 01°18' E 103°40'0 0.0
2017-Jul-13 18:00N 01°18' E 103°40'0 0.0
2017-Jul-13 17:30N 01°18' E 103°40'0 0.0
2017-Jul-13 17:01N 01°18' E 103°40'0 0.0
2017-Jul-13 16:30N 01°18' E 103°40'0 0.0
2017-Jul-13 16:00N 01°18' E 103°40'0 0.0
2017-Jul-13 15:31N 01°18' E 103°40'0 0.0
2017-Jul-13 15:00N 01°18' E 103°40'0 0.0
2017-Jul-13 14:30N 01°18' E 103°40'0 0.0
2017-Jul-13 14:00N 01°18' E 103°40'0 0.0
2017-Jul-13 13:30N 01°18' E 103°40'0 0.0
2017-Jul-13 13:00N 01°18' E 103°40'0 0.0
2017-Jul-13 12:31N 01°18' E 103°40'0 0.0
2017-Jul-13 12:00N 01°18' E 103°40'0 0.0
2017-Jul-13 11:30N 01°18' E 103°40'  
Track history (hours):
 
Tides and Currents Weather Stations Pressure Air Temp Water Temp Dewpoint Dewpoint Depression Visibility Wind Speed Wind Dir Waves Ship Positions

As Olivia

Last reported at 2017-Jul-23 11:16 UTC. Time now 2017-Jul-24 20:47 UTC.
Position S 06°47' E 112°45'.

Length 146 m; draft 9.1 m.

Type: Ship. MMSI: 548767000.

Date/timePositionNaut miles runAvg speedWind from/ knotsBaromVisibWave heightAir tempDewpointWater temp
2017-Jul-23 11:16S 06°47' E 112°45'312.8
2017-Jul-23 11:00S 06°51' E 112°45'4 8.9
2017-Jul-23 10:30S 06°55' E 112°44'510.4
2017-Jul-23 10:00S 06°60' E 112°41'510.3
2017-Jul-23 09:29S 07°05' E 112°39'5 9.9
2017-Jul-23 09:00S 07°09' E 112°40'1 0.8
2017-Jul-23 07:34S 07°10' E 112°40'0 0.0
2017-Jul-23 07:28S 07°10' E 112°40'0 0.0
2017-Jul-23 04:31S 07°10' E 112°40'0 0.0
2017-Jul-23 04:10S 07°10' E 112°40'0 0.0
2017-Jul-22 23:58S 07°10' E 112°40'0 0.0
2017-Jul-22 23:19S 07°10' E 112°40'0 0.0
2017-Jul-22 22:49S 07°10' E 112°40'0 0.0
2017-Jul-22 22:25S 07°10' E 112°40'0 0.0
2017-Jul-22 20:25S 07°10' E 112°40'0 0.0
2017-Jul-22 19:43S 07°10' E 112°40'0 0.0
2017-Jul-22 19:22S 07°10' E 112°40'0 0.0
2017-Jul-22 18:55S 07°10' E 112°40'0 0.0
2017-Jul-22 15:31S 07°10' E 112°40'0 0.0
2017-Jul-22 15:22S 07°10' E 112°40'0 0.0
2017-Jul-22 12:25S 07°10' E 112°40'0 0.0
2017-Jul-22 10:04S 07°10' E 112°40'0 0.0
2017-Jul-22 01:43S 07°10' E 112°40'0 0.0
2017-Jul-22 01:19S 07°10' E 112°40'0 0.0
2017-Jul-22 00:55S 07°10' E 112°40'0 0.0
2017-Jul-21 23:16S 07°10' E 112°40'0 0.0
2017-Jul-21 21:34S 07°10' E 112°40'0 0.0
2017-Jul-21 21:19S 07°10' E 112°40'0 0.0
2017-Jul-21 15:10S 07°10' E 112°40'0 0.0
2017-Jul-21 14:31S 07°10' E 112°40'0 0.0
2017-Jul-21 14:28S 07°10' E 112°40'0 0.0
2017-Jul-21 12:55S 07°10' E 112°40'0 0.0
2017-Jul-21 11:13S 07°10' E 112°40'0 0.0
2017-Jul-21 09:37S 07°10' E 112°40'0 0.0
2017-Jul-21 06:49S 07°10' E 112°40'0 0.0
2017-Jul-20 14:35S 07°10' E 112°40'2 2.6
2017-Jul-20 13:58S 07°09' E 112°40'511.2
2017-Jul-20 13:30S 07°04' E 112°40'612.3
2017-Jul-20 13:00S 06°58' E 112°42'612.3
2017-Jul-20 12:30S 06°53' E 112°45'5 8.3
2017-Jul-20 11:53S 06°48' E 112°47'3 6.8
2017-Jul-20 11:28S 06°45' E 112°48'814.2
2017-Jul-20 10:55S 06°39' E 112°53'  
2017-Jul-18 00:51N 01°13' E 103°56'515.6
2017-Jul-18 00:30N 01°11' E 103°51'815.1
2017-Jul-18 00:00N 01°07' E 103°45'713.8
2017-Jul-17 23:31N 01°04' E 103°39'712.9
2017-Jul-17 23:00N 01°09' E 103°34'611.7
2017-Jul-17 22:30N 01°11' E 103°39'2 3.3
2017-Jul-17 21:53N 01°12' E 103°41'0 0.0
2017-Jul-17 21:29N 01°12' E 103°41'0 0.1
2017-Jul-17 20:56N 01°12' E 103°41'0 0.0
2017-Jul-17 20:14N 01°12' E 103°41'0 0.0
2017-Jul-17 19:44N 01°12' E 103°41'0 0.0
2017-Jul-17 19:26N 01°12' E 103°41'0 0.0
2017-Jul-17 18:59N 01°12' E 103°41'0 0.0
2017-Jul-17 18:29N 01°12' E 103°41'0 0.0
2017-Jul-17 17:59N 01°12' E 103°41'0 0.0
2017-Jul-17 17:29N 01°12' E 103°41'0 0.0
2017-Jul-17 16:59N 01°12' E 103°41'0 0.0
2017-Jul-17 16:29N 01°12' E 103°41'0 0.0
2017-Jul-17 15:59N 01°12' E 103°41'0 0.0
2017-Jul-17 15:29N 01°12' E 103°41'0 0.0
2017-Jul-17 14:59N 01°12' E 103°41'0 0.0
2017-Jul-17 14:29N 01°12' E 103°41'0 0.0
2017-Jul-17 13:59N 01°12' E 103°41'0 0.0
2017-Jul-17 13:20N 01°12' E 103°41'0 0.0
2017-Jul-17 12:59N 01°12' E 103°41'0 0.0
2017-Jul-17 12:20N 01°12' E 103°41'0 0.0
2017-Jul-17 11:50N 01°12' E 103°41'0 0.0
2017-Jul-17 11:29N 01°12' E 103°41'0 0.0
2017-Jul-17 11:00N 01°12' E 103°41'0 0.0
2017-Jul-17 10:30N 01°12' E 103°41'0 0.0
2017-Jul-17 10:01N 01°12' E 103°41'1 1.1
2017-Jul-17 09:31N 01°13' E 103°41'2 4.8
2017-Jul-17 09:00N 01°14' E 103°40'3 5.1
2017-Jul-17 08:30N 01°17' E 103°40'1 1.8
2017-Jul-17 08:00N 01°18' E 103°41'0 0.4
2017-Jul-17 07:31N 01°18' E 103°40'0 0.0
2017-Jul-17 07:00N 01°18' E 103°40'0 0.0
2017-Jul-17 06:30N 01°18' E 103°40'0 0.0
2017-Jul-17 06:00N 01°18' E 103°40'0 0.0
2017-Jul-17 05:31N 01°18' E 103°40'0 0.0
2017-Jul-17 05:00N 01°18' E 103°40'0 0.0
2017-Jul-17 04:31N 01°18' E 103°40'0 0.0
2017-Jul-17 04:01N 01°18' E 103°40'0 0.0
2017-Jul-17 03:31N 01°18' E 103°40'0 0.0
2017-Jul-17 03:01N 01°18' E 103°40'0 0.0
2017-Jul-17 02:31N 01°18' E 103°40'0 0.0
2017-Jul-17 02:00N 01°18' E 103°40'0 0.0
2017-Jul-17 01:30N 01°18' E 103°40'0 0.0
2017-Jul-17 01:01N 01°18' E 103°40'0 0.0
2017-Jul-17 00:31N 01°18' E 103°40'0 0.0
2017-Jul-17 00:00N 01°18' E 103°40'0 0.0
2017-Jul-16 23:30N 01°18' E 103°40'0 0.0
2017-Jul-16 23:01N 01°18' E 103°40'0 0.0
2017-Jul-16 22:30N 01°18' E 103°40'0 0.0
2017-Jul-16 22:01N 01°18' E 103°40'0 0.0
2017-Jul-16 21:31N 01°18' E 103°40'0 0.0
2017-Jul-16 21:01N 01°18' E 103°40'0 0.0
2017-Jul-16 20:30N 01°18' E 103°40'0 0.0
2017-Jul-16 20:00N 01°18' E 103°40'0 0.0
2017-Jul-16 19:31N 01°18' E 103°40'0 0.0
2017-Jul-16 19:01N 01°18' E 103°40'0 0.0
2017-Jul-16 18:30N 01°18' E 103°40'0 0.0
2017-Jul-16 18:00N 01°18' E 103°40'0 0.0
2017-Jul-16 17:31N 01°18' E 103°40'0 0.0
2017-Jul-16 17:00N 01°18' E 103°40'0 0.0
2017-Jul-16 16:30N 01°18' E 103°40'0 0.0
2017-Jul-16 16:01N 01°18' E 103°40'0 0.0
2017-Jul-16 15:31N 01°18' E 103°40'0 0.0
2017-Jul-16 15:00N 01°18' E 103°40'0 0.0
2017-Jul-16 14:30N 01°18' E 103°40'0 0.0
2017-Jul-16 14:01N 01°18' E 103°40'0 0.0
2017-Jul-16 13:31N 01°18' E 103°40'0 0.0
2017-Jul-16 13:01N 01°18' E 103°40'0 0.0
2017-Jul-16 12:30N 01°18' E 103°40'0 0.0
2017-Jul-16 12:00N 01°18' E 103°40'0 0.0
2017-Jul-16 11:31N 01°18' E 103°40'0 0.0
2017-Jul-16 11:00N 01°18' E 103°40'0 0.0
2017-Jul-16 10:30N 01°18' E 103°40'0 0.0
2017-Jul-16 10:00N 01°18' E 103°40'0 0.0
2017-Jul-16 09:31N 01°18' E 103°40'0 0.0
2017-Jul-16 09:01N 01°18' E 103°40'0 0.0
2017-Jul-16 08:30N 01°18' E 103°40'0 0.0
2017-Jul-16 08:01N 01°18' E 103°40'0 0.0
2017-Jul-16 07:30N 01°18' E 103°40'0 0.0
2017-Jul-16 07:00N 01°18' E 103°40'0 0.0
2017-Jul-16 06:31N 01°18' E 103°40'0 0.0
2017-Jul-16 06:01N 01°18' E 103°40'0 0.0
2017-Jul-16 05:30N 01°18' E 103°40'0 0.0
2017-Jul-15 07:00N 01°18' E 103°40'0 0.0
2017-Jul-15 06:30N 01°18' E 103°40'0 0.0
2017-Jul-15 06:01N 01°18' E 103°40'0 0.0
2017-Jul-15 05:30N 01°18' E 103°40'0 0.0
2017-Jul-15 05:00N 01°18' E 103°40'0 0.0
2017-Jul-15 04:31N 01°18' E 103°40'0 0.0
2017-Jul-15 04:01N 01°18' E 103°40'0 0.0
2017-Jul-15 03:30N 01°18' E 103°40'0 0.0
2017-Jul-15 03:00N 01°18' E 103°40'0 0.0
2017-Jul-15 02:30N 01°18' E 103°40'0 0.0
2017-Jul-15 02:01N 01°18' E 103°40'0 0.1
2017-Jul-15 01:31N 01°18' E 103°40'0 0.0
2017-Jul-15 01:01N 01°18' E 103°40'0 0.0
2017-Jul-15 00:30N 01°18' E 103°40'0 0.0
2017-Jul-15 00:00N 01°18' E 103°40'0 0.0
2017-Jul-14 23:31N 01°18' E 103°40'0 0.0
2017-Jul-14 23:01N 01°18' E 103°40'0 0.0
2017-Jul-14 22:31N 01°18' E 103°40'0 0.0
2017-Jul-14 22:00N 01°18' E 103°40'0 0.0
2017-Jul-14 21:30N 01°18' E 103°40'0 0.0
2017-Jul-14 21:00N 01°18' E 103°40'0 0.0
2017-Jul-14 20:31N 01°18' E 103°40'0 0.0
2017-Jul-14 20:01N 01°18' E 103°40'0 0.0
2017-Jul-14 19:31N 01°18' E 103°40'0 0.0
2017-Jul-14 19:00N 01°18' E 103°40'0 0.0
2017-Jul-14 18:30N 01°18' E 103°40'0 0.0
2017-Jul-14 18:00N 01°18' E 103°40'0 0.1
2017-Jul-14 17:31N 01°18' E 103°40'0 0.1
2017-Jul-14 17:00N 01°18' E 103°40'0 0.0
2017-Jul-14 16:30N 01°18' E 103°40'0 0.0
2017-Jul-14 16:00N 01°18' E 103°40'0 0.0
2017-Jul-14 15:30N 01°18' E 103°40'0 0.0
2017-Jul-14 15:00N 01°18' E 103°40'0 0.0
2017-Jul-14 14:30N 01°18' E 103°40'0 0.0
2017-Jul-14 14:00N 01°18' E 103°40'0 0.0
2017-Jul-14 13:30N 01°18' E 103°40'0 0.0
2017-Jul-14 13:00N 01°18' E 103°40'0 0.0
2017-Jul-14 12:30N 01°18' E 103°40'0 0.0
2017-Jul-14 12:00N 01°18' E 103°40'0 0.0
2017-Jul-14 11:31N 01°18' E 103°40'0 0.0
2017-Jul-14 11:00N 01°18' E 103°40'0 0.0
2017-Jul-14 10:30N 01°18' E 103°40'0 0.0
2017-Jul-14 10:01N 01°18' E 103°40'0 0.0
2017-Jul-14 09:30N 01°18' E 103°40'0 0.0
2017-Jul-14 09:00N 01°18' E 103°40'0 0.0
2017-Jul-14 08:30N 01°18' E 103°40'0 0.0
2017-Jul-14 08:00N 01°18' E 103°40'0 0.0
2017-Jul-14 07:30N 01°18' E 103°40'0 0.0
2017-Jul-14 07:00N 01°18' E 103°40'0 0.0
2017-Jul-14 06:30N 01°18' E 103°40'0 0.0
2017-Jul-14 06:00N 01°18' E 103°40'0 0.0
2017-Jul-14 05:30N 01°18' E 103°40'0 0.0
2017-Jul-14 05:00N 01°18' E 103°40'0 0.0
2017-Jul-14 04:30N 01°18' E 103°40'0 0.0
2017-Jul-14 04:01N 01°18' E 103°40'0 0.0
2017-Jul-14 03:30N 01°18' E 103°40'0 0.0
2017-Jul-14 03:00N 01°18' E 103°40'0 0.0
2017-Jul-14 02:30N 01°18' E 103°40'0 0.0
2017-Jul-14 02:00N 01°18' E 103°40'0 0.1
2017-Jul-14 01:31N 01°18' E 103°40'0 0.0
2017-Jul-14 01:00N 01°18' E 103°40'0 0.1
2017-Jul-14 00:31N 01°18' E 103°40'0 0.1
2017-Jul-14 00:00N 01°18' E 103°40'0 0.0
2017-Jul-13 23:30N 01°18' E 103°40'0 0.0
2017-Jul-13 23:01N 01°18' E 103°40'0 0.0
2017-Jul-13 22:31N 01°18' E 103°40'0 0.0
2017-Jul-13 22:00N 01°18' E 103°40'0 0.0
2017-Jul-13 21:30N 01°18' E 103°40'0 0.0
2017-Jul-13 21:01N 01°18' E 103°40'0 0.0
2017-Jul-13 20:30N 01°18' E 103°40'0 0.1
2017-Jul-13 20:00N 01°18' E 103°40'0 0.0
2017-Jul-13 19:30N 01°18' E 103°40'0 0.0
2017-Jul-13 19:00N 01°18' E 103°40'0 0.0
2017-Jul-13 18:31N 01°18' E 103°40'0 0.0
2017-Jul-13 18:00N 01°18' E 103°40'0 0.0
2017-Jul-13 17:30N 01°18' E 103°40'0 0.0
2017-Jul-13 17:01N 01°18' E 103°40'0 0.0
2017-Jul-13 16:30N 01°18' E 103°40'0 0.0
2017-Jul-13 16:00N 01°18' E 103°40'0 0.0
2017-Jul-13 15:31N 01°18' E 103°40'0 0.0
2017-Jul-13 15:00N 01°18' E 103°40'0 0.0
2017-Jul-13 14:30N 01°18' E 103°40'0 0.0
2017-Jul-13 14:00N 01°18' E 103°40'0 0.0
2017-Jul-13 13:30N 01°18' E 103°40'0 0.0
2017-Jul-13 13:00N 01°18' E 103°40'0 0.0
2017-Jul-13 12:31N 01°18' E 103°40'0 0.0
2017-Jul-13 12:00N 01°18' E 103°40'0 0.0
2017-Jul-13 11:30N 01°18' E 103°40'  

Dump ship's entire track history